Las Vegas, Nevada
Current Conditions -  °F | °C
As of 1:56 AM on Tuesday 21 Oct 2014 (Local Time) from KLAS Reporting Station
Scattered Clouds Scattered Clouds  
Wind Chill: 73°   Ceiling: Unl
Heat Index: 73°   Visibility: 10mi
Dew Point: 38°   Wind: 13mph
Humidity: 28%   Direction: 180°S
Pressure: 29.82"   Gusts: NA
Location:  36.17°N, 115.13°W
Report Text: KLAS 210856Z 18011KT 10SM SCT170 23/03 A2982 RMK AO2 SLP074 T02280033 53001
Loading
Personal Weather Stations






























Interactive Weather Map New forecast layout! Learn more

10-Day Weather Forecast

Advertisements
Track Severe Weather on mobile